Grande Italia — IBTF — position and weather

sailwx.info

Track history (hours):
 
Tides and Currents Weather Stations Pressure Air Temp Water Temp Dewpoint Dewpoint Depression Visibility Wind Speed Wind Dir Waves Ship Positions

Grande Italia

Last reported at 2018-Feb-17 20:48 UTC. Time now 2018-Feb-19 20:07 UTC.
Position N 37°27' E 024°03'.

Length 177 m; draft 7.8 m.

Type: Cargo ship. MMSI: 247039300.

Date/timePositionNaut miles runAvg speedWind from/ knotsBaromVisibWave heightAir tempDewpointWater temp
2018-Feb-17 20:48N 37°27' E 024°03'917.6
2018-Feb-17 20:19N 37°35' E 024°08'1117.3
2018-Feb-17 19:40N 37°43' E 024°18'417.4
2018-Feb-17 19:27N 37°45' E 024°21'  
2018-Feb-14 21:08N 37°35' E 025°53'217.8
2018-Feb-14 21:00N 37°33' E 025°53'  
2018-Feb-12 15:37N 31°52' E 034°38'15 1.3
2018-Feb-12 03:55N 32°07' E 034°34'716.9
2018-Feb-12 03:30N 32°13' E 034°36'816.9
2018-Feb-12 03:00N 32°21' E 034°39'917.3
2018-Feb-12 02:30N 32°30' E 034°41'917.5
2018-Feb-12 02:01N 32°38' E 034°44'917.2
2018-Feb-12 01:31N 32°46' E 034°47'915.9
2018-Feb-12 00:58N 32°54' E 034°51'816.4
2018-Feb-12 00:29N 32°52' E 034°60'2 0.1
2018-Feb-11 02:59N 32°50' E 035°01'2 2.3
2018-Feb-11 02:07N 32°51' E 034°60'0 3.0
2018-Feb-11 02:00N 32°51' E 034°59'1 2.3
2018-Feb-11 01:30N 32°52' E 034°58'1 2.0
2018-Feb-11 01:00N 32°53' E 034°57'611.2
2018-Feb-11 00:30N 32°54' E 034°51'815.2
2018-Feb-11 00:00N 32°55' E 034°42'816.8
2018-Feb-10 23:30N 32°57' E 034°32'816.7
2018-Feb-10 23:00N 32°58' E 034°22'816.6
2018-Feb-10 22:30N 32°60' E 034°13'816.8
2018-Feb-10 22:00N 33°02' E 034°03'815.2
2018-Feb-10 21:28N 33°07' E 033°56'817.0
2018-Feb-10 21:00N 33°14' E 033°52'916.6
2018-Feb-10 20:30N 33°22' E 033°47'816.7
2018-Feb-10 20:00N 33°29' E 033°43'1117.0
2018-Feb-10 19:21N 33°39' E 033°36'1917.3
2018-Feb-10 18:15N 33°56' E 033°27'517.2
2018-Feb-10 17:58N 34°01' E 033°24'917.6
2018-Feb-10 17:29N 34°08' E 033°20'3217.3
2018-Feb-10 15:38N 34°37' E 033°03'211.9
2018-Feb-10 15:30N 34°39' E 033°03'2 3.3
2018-Feb-10 14:59N 34°39' E 033°01'0 0.0
2018-Feb-10 14:29N 34°39' E 033°01'0 0.0
2018-Feb-10 13:59N 34°39' E 033°01'0 0.0
2018-Feb-10 13:29N 34°39' E 033°01'0 0.0
2018-Feb-10 12:59N 34°39' E 033°01'0 0.0
2018-Feb-10 12:29N 34°39' E 033°01'0 0.0
2018-Feb-10 11:59N 34°39' E 033°01'0 0.0
2018-Feb-10 11:29N 34°39' E 033°01'0 0.0
2018-Feb-10 10:59N 34°39' E 033°01'0 0.4
2018-Feb-10 10:30N 34°39' E 033°01'2 3.7
2018-Feb-10 10:00N 34°39' E 033°04'3 6.8
2018-Feb-10 09:31N 34°36' E 033°05'4115.1
2018-Feb-10 06:46N 34°36' E 032°15'2816.9
2018-Feb-10 05:05N 34°41' E 031°41'117.2
2018-Feb-10 05:01N 34°41' E 031°39'1417.4
2018-Feb-10 04:11N 34°43' E 031°22'317.3
2018-Feb-10 03:59N 34°43' E 031°18'2817.3
2018-Feb-10 02:24N 34°48' E 030°45'4317.5
2018-Feb-09 23:58N 34°55' E 029°54'  
Track history (hours):
 
Tides and Currents Weather Stations Pressure Air Temp Water Temp Dewpoint Dewpoint Depression Visibility Wind Speed Wind Dir Waves Ship Positions

Grande Italia

Last reported at 2018-Feb-17 20:48 UTC. Time now 2018-Feb-19 20:07 UTC.
Position N 37°27' E 024°03'.

Length 177 m; draft 7.8 m.

Type: Cargo ship. MMSI: 247039300.

Date/timePositionNaut miles runAvg speedWind from/ knotsBaromVisibWave heightAir tempDewpointWater temp
2018-Feb-17 20:48N 37°27' E 024°03'917.6
2018-Feb-17 20:19N 37°35' E 024°08'1117.3
2018-Feb-17 19:40N 37°43' E 024°18'417.4
2018-Feb-17 19:27N 37°45' E 024°21'  
2018-Feb-14 21:08N 37°35' E 025°53'217.8
2018-Feb-14 21:00N 37°33' E 025°53'  
2018-Feb-12 15:37N 31°52' E 034°38'15 1.3
2018-Feb-12 03:55N 32°07' E 034°34'716.9
2018-Feb-12 03:30N 32°13' E 034°36'816.9
2018-Feb-12 03:00N 32°21' E 034°39'917.3
2018-Feb-12 02:30N 32°30' E 034°41'917.5
2018-Feb-12 02:01N 32°38' E 034°44'917.2
2018-Feb-12 01:31N 32°46' E 034°47'915.9
2018-Feb-12 00:58N 32°54' E 034°51'816.4
2018-Feb-12 00:29N 32°52' E 034°60'2 0.1
2018-Feb-11 02:59N 32°50' E 035°01'2 2.3
2018-Feb-11 02:07N 32°51' E 034°60'0 3.0
2018-Feb-11 02:00N 32°51' E 034°59'1 2.3
2018-Feb-11 01:30N 32°52' E 034°58'1 2.0
2018-Feb-11 01:00N 32°53' E 034°57'611.2
2018-Feb-11 00:30N 32°54' E 034°51'815.2
2018-Feb-11 00:00N 32°55' E 034°42'816.8
2018-Feb-10 23:30N 32°57' E 034°32'816.7
2018-Feb-10 23:00N 32°58' E 034°22'816.6
2018-Feb-10 22:30N 32°60' E 034°13'816.8
2018-Feb-10 22:00N 33°02' E 034°03'815.2
2018-Feb-10 21:28N 33°07' E 033°56'817.0
2018-Feb-10 21:00N 33°14' E 033°52'916.6
2018-Feb-10 20:30N 33°22' E 033°47'816.7
2018-Feb-10 20:00N 33°29' E 033°43'1117.0
2018-Feb-10 19:21N 33°39' E 033°36'1917.3
2018-Feb-10 18:15N 33°56' E 033°27'517.2
2018-Feb-10 17:58N 34°01' E 033°24'917.6
2018-Feb-10 17:29N 34°08' E 033°20'3217.3
2018-Feb-10 15:38N 34°37' E 033°03'211.9
2018-Feb-10 15:30N 34°39' E 033°03'2 3.3
2018-Feb-10 14:59N 34°39' E 033°01'0 0.0
2018-Feb-10 14:29N 34°39' E 033°01'0 0.0
2018-Feb-10 13:59N 34°39' E 033°01'0 0.0
2018-Feb-10 13:29N 34°39' E 033°01'0 0.0
2018-Feb-10 12:59N 34°39' E 033°01'0 0.0
2018-Feb-10 12:29N 34°39' E 033°01'0 0.0
2018-Feb-10 11:59N 34°39' E 033°01'0 0.0
2018-Feb-10 11:29N 34°39' E 033°01'0 0.0
2018-Feb-10 10:59N 34°39' E 033°01'0 0.4
2018-Feb-10 10:30N 34°39' E 033°01'2 3.7
2018-Feb-10 10:00N 34°39' E 033°04'3 6.8
2018-Feb-10 09:31N 34°36' E 033°05'4115.1
2018-Feb-10 06:46N 34°36' E 032°15'2816.9
2018-Feb-10 05:05N 34°41' E 031°41'117.2
2018-Feb-10 05:01N 34°41' E 031°39'1417.4
2018-Feb-10 04:11N 34°43' E 031°22'317.3
2018-Feb-10 03:59N 34°43' E 031°18'2817.3
2018-Feb-10 02:24N 34°48' E 030°45'4317.5
2018-Feb-09 23:58N 34°55' E 029°54'  

Dump ship's entire track history